sensor_id;sensor_type;location;lat;lon;timestamp;pressure;altitude;pressure_sealevel;temperature;humidity
73297;BME280;61524;50.938;11.396;2022-10-16T00:00:56;98767.84;;;13.37;100.00
73297;BME280;61524;50.938;11.396;2022-10-16T00:03:21;98774.31;;;13.26;100.00
73297;BME280;61524;50.938;11.396;2022-10-16T00:05:47;98780.19;;;13.18;100.00
73297;BME280;61524;50.938;11.396;2022-10-16T00:08:13;98782.34;;;13.06;100.00
73297;BME280;61524;50.938;11.396;2022-10-16T00:10:39;98769.19;;;12.94;100.00
73297;BME280;61524;50.938;11.396;2022-10-16T00:13:05;98776.44;;;12.88;100.00
73297;BME280;61524;50.938;11.396;2022-10-16T00:15:36;98761.16;;;12.74;100.00
73297;BME280;61524;50.938;11.396;2022-10-16T00:18:03;98758.75;;;12.67;100.00
73297;BME280;61524;50.938;11.396;2022-10-16T00:20:29;98765.97;;;12.56;100.00
73297;BME280;61524;50.938;11.396;2022-10-16T00:22:56;98760.59;;;12.46;100.00
73297;BME280;61524;50.938;11.396;2022-10-16T00:25:22;98747.97;;;12.37;100.00
73297;BME280;61524;50.938;11.396;2022-10-16T00:27:47;98759.50;;;12.27;100.00
73297;BME280;61524;50.938;11.396;2022-10-16T00:30:13;98756.50;;;12.18;100.00
73297;BME280;61524;50.938;11.396;2022-10-16T00:32:38;98756.50;;;12.13;100.00
73297;BME280;61524;50.938;11.396;2022-10-16T00:35:04;98753.28;;;12.06;100.00
73297;BME280;61524;50.938;11.396;2022-10-16T00:37:30;98753.22;;;11.96;100.00
73297;BME280;61524;50.938;11.396;2022-10-16T00:39:55;98751.59;;;11.90;100.00
73297;BME280;61524;50.938;11.396;2022-10-16T00:42:22;98756.13;;;11.84;100.00
73297;BME280;61524;50.938;11.396;2022-10-16T00:44:49;98752.34;;;11.80;100.00
73297;BME280;61524;50.938;11.396;2022-10-16T00:49:47;98769.19;;;11.75;100.00
73297;BME280;61524;50.938;11.396;2022-10-16T00:52:14;98769.47;;;11.79;100.00
73297;BME280;61524;50.938;11.396;2022-10-16T00:54:40;98773.97;;;11.68;100.00
73297;BME280;61524;50.938;11.396;2022-10-16T00:57:06;98771.25;;;11.63;100.00
73297;BME280;61524;50.938;11.396;2022-10-16T00:59:36;98785.16;;;11.60;100.00
73297;BME280;61524;50.938;11.396;2022-10-16T01:02:03;98784.59;;;11.53;100.00
73297;BME280;61524;50.938;11.396;2022-10-16T01:04:38;98781.59;;;11.49;100.00
73297;BME280;61524;50.938;11.396;2022-10-16T01:07:14;98776.78;;;11.46;100.00
73297;BME280;61524;50.938;11.396;2022-10-16T01:09:50;98775.44;;;11.44;100.00
73297;BME280;61524;50.938;11.396;2022-10-16T01:12:33;98787.50;;;11.46;100.00
73297;BME280;61524;50.938;11.396;2022-10-16T01:15:14;98772.75;;;11.44;100.00
73297;BME280;61524;50.938;11.396;2022-10-16T01:25:29;98765.50;;;11.39;100.00
73297;BME280;61524;50.938;11.396;2022-10-16T01:27:57;98764.44;;;11.40;100.00
73297;BME280;61524;50.938;11.396;2022-10-16T01:30:26;98760.16;;;11.39;100.00
73297;BME280;61524;50.938;11.396;2022-10-16T01:32:57;98750.53;;;11.38;100.00
73297;BME280;61524;50.938;11.396;2022-10-16T01:41:00;98759.28;;;11.28;100.00
73297;BME280;61524;50.938;11.396;2022-10-16T01:43:33;98763.59;;;11.35;100.00
73297;BME280;61524;50.938;11.396;2022-10-16T01:46:01;98758.25;;;11.35;100.00
73297;BME280;61524;50.938;11.396;2022-10-16T01:48:26;98779.16;;;11.43;100.00
73297;BME280;61524;50.938;11.396;2022-10-16T01:50:57;98771.19;;;11.48;100.00
73297;BME280;61524;50.938;11.396;2022-10-16T01:53:25;98767.66;;;11.42;100.00
73297;BME280;61524;50.938;11.396;2022-10-16T01:55:52;98779.75;;;11.50;100.00
73297;BME280;61524;50.938;11.396;2022-10-16T01:58:21;98788.34;;;11.52;100.00
73297;BME280;61524;50.938;11.396;2022-10-16T02:00:48;98791.25;;;11.50;100.00
73297;BME280;61524;50.938;11.396;2022-10-16T02:03:16;98773.56;;;11.44;100.00
73297;BME280;61524;50.938;11.396;2022-10-16T02:05:52;98795.78;;;11.50;100.00
73297;BME280;61524;50.938;11.396;2022-10-16T02:08:20;98792.53;;;11.43;100.00
73297;BME280;61524;50.938;11.396;2022-10-16T02:10:46;98789.88;;;11.43;100.00
73297;BME280;61524;50.938;11.396;2022-10-16T02:13:25;98799.19;;;11.40;100.00
73297;BME280;61524;50.938;11.396;2022-10-16T02:15:52;98793.56;;;11.37;100.00
73297;BME280;61524;50.938;11.396;2022-10-16T02:18:17;98807.50;;;11.39;100.00
73297;BME280;61524;50.938;11.396;2022-10-16T02:26:42;98810.16;;;11.39;100.00
73297;BME280;61524;50.938;11.396;2022-10-16T02:29:14;98798.94;;;11.37;100.00
73297;BME280;61524;50.938;11.396;2022-10-16T02:31:46;98796.50;;;11.35;100.00
73297;BME280;61524;50.938;11.396;2022-10-16T02:34:14;98801.84;;;11.35;100.00
73297;BME280;61524;50.938;11.396;2022-10-16T02:36:41;98803.44;;;11.31;100.00
73297;BME280;61524;50.938;11.396;2022-10-16T02:39:09;98801.84;;;11.30;100.00
73297;BME280;61524;50.938;11.396;2022-10-16T02:41:35;98803.19;;;11.33;100.00
73297;BME280;61524;50.938;11.396;2022-10-16T02:44:01;98796.06;;;11.48;100.00
73297;BME280;61524;50.938;11.396;2022-10-16T02:46:26;98791.63;;;11.69;100.00
73297;BME280;61524;50.938;11.396;2022-10-16T02:48:52;98807.63;;;12.06;100.00
73297;BME280;61524;50.938;11.396;2022-10-16T02:51:17;98810.59;;;12.20;100.00
73297;BME280;61524;50.938;11.396;2022-10-16T02:53:43;98810.13;;;12.28;100.00
73297;BME280;61524;50.938;11.396;2022-10-16T02:56:08;98816.56;;;12.32;100.00
73297;BME280;61524;50.938;11.396;2022-10-16T02:58:33;98810.44;;;12.52;100.00
73297;BME280;61524;50.938;11.396;2022-10-16T03:00:59;98822.25;;;12.61;100.00
73297;BME280;61524;50.938;11.396;2022-10-16T03:03:24;98820.69;;;12.71;100.00
73297;BME280;61524;50.938;11.396;2022-10-16T03:05:50;98815.31;;;12.71;100.00
73297;BME280;61524;50.938;11.396;2022-10-16T03:08:15;98819.31;;;12.68;100.00
73297;BME280;61524;50.938;11.396;2022-10-16T03:10:41;98834.88;;;12.71;100.00
73297;BME280;61524;50.938;11.396;2022-10-16T03:13:06;98823.06;;;12.67;100.00
73297;BME280;61524;50.938;11.396;2022-10-16T03:15:32;98827.09;;;12.59;100.00
73297;BME280;61524;50.938;11.396;2022-10-16T03:17:58;98818.22;;;12.59;100.00
73297;BME280;61524;50.938;11.396;2022-10-16T03:20:24;98813.13;;;12.52;100.00
73297;BME280;61524;50.938;11.396;2022-10-16T03:22:49;98817.16;;;12.50;100.00
73297;BME280;61524;50.938;11.396;2022-10-16T03:25:15;98818.19;;;12.44;100.00
73297;BME280;61524;50.938;11.396;2022-10-16T03:27:40;98809.34;;;12.38;100.00
73297;BME280;61524;50.938;11.396;2022-10-16T03:30:06;98818.16;;;12.33;100.00
73297;BME280;61524;50.938;11.396;2022-10-16T03:32:32;98814.66;;;12.28;100.00
73297;BME280;61524;50.938;11.396;2022-10-16T03:34:57;98806.06;;;12.26;100.00
73297;BME280;61524;50.938;11.396;2022-10-16T03:37:23;98800.47;;;12.22;100.00
73297;BME280;61524;50.938;11.396;2022-10-16T03:39:48;98797.75;;;12.17;100.00
73297;BME280;61524;50.938;11.396;2022-10-16T03:42:14;98788.91;;;12.12;100.00
73297;BME280;61524;50.938;11.396;2022-10-16T03:44:39;98803.59;;;12.09;100.00
73297;BME280;61524;50.938;11.396;2022-10-16T03:47:05;98808.97;;;12.09;100.00
73297;BME280;61524;50.938;11.396;2022-10-16T03:49:30;98814.88;;;12.11;100.00
73297;BME280;61524;50.938;11.396;2022-10-16T03:51:55;98806.59;;;12.18;100.00
73297;BME280;61524;50.938;11.396;2022-10-16T03:54:21;98810.59;;;12.15;100.00
73297;BME280;61524;50.938;11.396;2022-10-16T03:56:47;98817.00;;;12.09;100.00
73297;BME280;61524;50.938;11.396;2022-10-16T03:59:13;98824.22;;;12.08;100.00
73297;BME280;61524;50.938;11.396;2022-10-16T04:01:39;98836.78;;;12.03;100.00
73297;BME280;61524;50.938;11.396;2022-10-16T04:04:04;98833.78;;;11.94;100.00
73297;BME280;61524;50.938;11.396;2022-10-16T04:06:29;98827.38;;;11.90;100.00
73297;BME280;61524;50.938;11.396;2022-10-16T04:08:55;98828.19;;;11.91;100.00
73297;BME280;61524;50.938;11.396;2022-10-16T04:11:21;98833.25;;;11.92;100.00
73297;BME280;61524;50.938;11.396;2022-10-16T04:13:46;98829.22;;;11.85;100.00
73297;BME280;61524;50.938;11.396;2022-10-16T04:16:12;98838.28;;;11.83;100.00
73297;BME280;61524;50.938;11.396;2022-10-16T04:18:37;98843.91;;;11.82;100.00
73297;BME280;61524;50.938;11.396;2022-10-16T04:21:04;98847.91;;;11.79;100.00
73297;BME280;61524;50.938;11.396;2022-10-16T04:23:29;98853.25;;;11.79;100.00
73297;BME280;61524;50.938;11.396;2022-10-16T04:25:55;98847.38;;;11.82;100.00
73297;BME280;61524;50.938;11.396;2022-10-16T04:28:20;98855.41;;;11.82;100.00
73297;BME280;61524;50.938;11.396;2022-10-16T04:30:46;98862.38;;;11.83;100.00
73297;BME280;61524;50.938;11.396;2022-10-16T04:33:11;98867.22;;;11.87;100.00
73297;BME280;61524;50.938;11.396;2022-10-16T04:35:38;98869.38;;;11.85;100.00
73297;BME280;61524;50.938;11.396;2022-10-16T04:38:03;98877.94;;;11.87;100.00
73297;BME280;61524;50.938;11.396;2022-10-16T04:40:29;98881.38;;;11.82;100.00
73297;BME280;61524;50.938;11.396;2022-10-16T04:42:58;98871.25;;;11.84;100.00
73297;BME280;61524;50.938;11.396;2022-10-16T04:45:24;98870.38;;;11.78;100.00
73297;BME280;61524;50.938;11.396;2022-10-16T04:47:50;98871.69;;;11.76;100.00
73297;BME280;61524;50.938;11.396;2022-10-16T04:50:16;98880.78;;;11.75;100.00
73297;BME280;61524;50.938;11.396;2022-10-16T04:52:41;98879.38;;;11.67;100.00
73297;BME280;61524;50.938;11.396;2022-10-16T04:55:07;98885.00;;;11.66;100.00
73297;BME280;61524;50.938;11.396;2022-10-16T04:57:32;98895.97;;;11.64;100.00
73297;BME280;61524;50.938;11.396;2022-10-16T04:59:58;98905.56;;;11.60;100.00
73297;BME280;61524;50.938;11.396;2022-10-16T05:02:25;98918.69;;;11.62;100.00
73297;BME280;61524;50.938;11.396;2022-10-16T05:04:51;98902.84;;;11.55;100.00
73297;BME280;61524;50.938;11.396;2022-10-16T05:07:16;98901.84;;;11.66;100.00
73297;BME280;61524;50.938;11.396;2022-10-16T05:09:42;98898.38;;;11.66;100.00
73297;BME280;61524;50.938;11.396;2022-10-16T05:12:07;98899.97;;;11.67;100.00
73297;BME280;61524;50.938;11.396;2022-10-16T05:14:33;98898.94;;;11.73;100.00
73297;BME280;61524;50.938;11.396;2022-10-16T05:17:00;98899.72;;;11.63;100.00
73297;BME280;61524;50.938;11.396;2022-10-16T05:19:25;98902.09;;;11.60;100.00
73297;BME280;61524;50.938;11.396;2022-10-16T05:21:51;98907.69;;;11.58;100.00
73297;BME280;61524;50.938;11.396;2022-10-16T05:24:17;98919.19;;;11.59;100.00
73297;BME280;61524;50.938;11.396;2022-10-16T05:26:42;98921.97;;;11.69;100.00
73297;BME280;61524;50.938;11.396;2022-10-16T05:29:08;98913.16;;;11.73;100.00
73297;BME280;61524;50.938;11.396;2022-10-16T05:31:34;98913.97;;;11.74;100.00
73297;BME280;61524;50.938;11.396;2022-10-16T05:34:01;98923.88;;;11.73;100.00
73297;BME280;61524;50.938;11.396;2022-10-16T05:36:26;98921.19;;;11.73;100.00
73297;BME280;61524;50.938;11.396;2022-10-16T05:38:52;98925.47;;;11.74;100.00
73297;BME280;61524;50.938;11.396;2022-10-16T05:41:18;98925.47;;;11.74;100.00
73297;BME280;61524;50.938;11.396;2022-10-16T05:43:47;98936.16;;;11.69;100.00
73297;BME280;61524;50.938;11.396;2022-10-16T05:46:13;98940.97;;;11.72;100.00
73297;BME280;61524;50.938;11.396;2022-10-16T05:48:38;98942.31;;;11.70;100.00
73297;BME280;61524;50.938;11.396;2022-10-16T05:51:06;98948.47;;;11.70;100.00
73297;BME280;61524;50.938;11.396;2022-10-16T05:53:33;98952.75;;;11.71;100.00
73297;BME280;61524;50.938;11.396;2022-10-16T05:55:59;98954.38;;;11.77;100.00
73297;BME280;61524;50.938;11.396;2022-10-16T05:58:28;98953.34;;;11.78;100.00
73297;BME280;61524;50.938;11.396;2022-10-16T06:01:15;98951.81;;;11.88;100.00
73297;BME280;61524;50.938;11.396;2022-10-16T06:03:41;98967.38;;;11.91;100.00
73297;BME280;61524;50.938;11.396;2022-10-16T06:06:08;98973.53;;;11.91;100.00
73297;BME280;61524;50.938;11.396;2022-10-16T06:08:34;98987.25;;;12.00;100.00
73297;BME280;61524;50.938;11.396;2022-10-16T06:11:01;98972.25;;;11.99;100.00
73297;BME280;61524;50.938;11.396;2022-10-16T06:13:27;98973.97;;;12.15;100.00
73297;BME280;61524;50.938;11.396;2022-10-16T06:15:53;98972.63;;;12.13;100.00
73297;BME280;61524;50.938;11.396;2022-10-16T06:18:18;98977.19;;;12.12;100.00
73297;BME280;61524;50.938;11.396;2022-10-16T06:20:44;98983.38;;;12.18;100.00
73297;BME280;61524;50.938;11.396;2022-10-16T06:23:09;98962.25;;;12.26;100.00
73297;BME280;61524;50.938;11.396;2022-10-16T06:25:34;98941.94;;;12.35;100.00
73297;BME280;61524;50.938;11.396;2022-10-16T06:28:00;98942.78;;;12.41;100.00
73297;BME280;61524;50.938;11.396;2022-10-16T06:30:25;98950.31;;;12.49;100.00
73297;BME280;61524;50.938;11.396;2022-10-16T06:32:51;98951.94;;;12.50;100.00
73297;BME280;61524;50.938;11.396;2022-10-16T06:35:16;98950.41;;;12.65;100.00
73297;BME280;61524;50.938;11.396;2022-10-16T06:37:41;98954.16;;;12.74;100.00
73297;BME280;61524;50.938;11.396;2022-10-16T06:40:07;98933.81;;;12.83;100.00
73297;BME280;61524;50.938;11.396;2022-10-16T06:42:33;98950.22;;;12.92;100.00
73297;BME280;61524;50.938;11.396;2022-10-16T06:44:58;98950.75;;;12.94;100.00
73297;BME280;61524;50.938;11.396;2022-10-16T06:47:23;98936.81;;;13.02;100.00
73297;BME280;61524;50.938;11.396;2022-10-16T06:49:49;98950.00;;;13.19;100.00
73297;BME280;61524;50.938;11.396;2022-10-16T06:52:14;98944.41;;;13.25;100.00
73297;BME280;61524;50.938;11.396;2022-10-16T06:54:40;98942.00;;;13.34;100.00
73297;BME280;61524;50.938;11.396;2022-10-16T06:57:05;98939.06;;;13.46;100.00
73297;BME280;61524;50.938;11.396;2022-10-16T06:59:31;98952.47;;;13.66;100.00
73297;BME280;61524;50.938;11.396;2022-10-16T07:01:56;98956.53;;;13.79;100.00
73297;BME280;61524;50.938;11.396;2022-10-16T07:04:22;98967.00;;;13.90;100.00
73297;BME280;61524;50.938;11.396;2022-10-16T07:06:47;98971.28;;;13.97;100.00
73297;BME280;61524;50.938;11.396;2022-10-16T07:09:13;98976.13;;;14.05;100.00
73297;BME280;61524;50.938;11.396;2022-10-16T07:11:39;98986.03;;;14.14;100.00
73297;BME280;61524;50.938;11.396;2022-10-16T07:14:05;98987.38;;;14.17;100.00
73297;BME280;61524;50.938;11.396;2022-10-16T07:16:37;98990.06;;;14.17;100.00
73297;BME280;61524;50.938;11.396;2022-10-16T07:19:02;99000.81;;;14.22;100.00
73297;BME280;61524;50.938;11.396;2022-10-16T07:21:30;98996.22;;;14.33;100.00
73297;BME280;61524;50.938;11.396;2022-10-16T07:24:00;98993.22;;;14.44;100.00
73297;BME280;61524;50.938;11.396;2022-10-16T07:26:28;98995.34;;;14.58;100.00
73297;BME280;61524;50.938;11.396;2022-10-16T07:28:55;99006.13;;;14.58;100.00
73297;BME280;61524;50.938;11.396;2022-10-16T07:31:22;98998.59;;;14.60;100.00
73297;BME280;61524;50.938;11.396;2022-10-16T07:33:48;98998.31;;;14.61;100.00
73297;BME280;61524;50.938;11.396;2022-10-16T07:36:19;99002.28;;;14.74;100.00
73297;BME280;61524;50.938;11.396;2022-10-16T07:38:45;99006.28;;;14.87;100.00
73297;BME280;61524;50.938;11.396;2022-10-16T07:41:13;99007.34;;;14.96;99.88
73297;BME280;61524;50.938;11.396;2022-10-16T07:43:39;99013.22;;;15.03;99.26
73297;BME280;61524;50.938;11.396;2022-10-16T07:46:04;99015.91;;;15.03;98.86
73297;BME280;61524;50.938;11.396;2022-10-16T07:48:31;99018.03;;;15.06;99.08
73297;BME280;61524;50.938;11.396;2022-10-16T07:51:02;99008.34;;;15.10;98.49
73297;BME280;61524;50.938;11.396;2022-10-16T07:53:28;99011.03;;;15.10;98.40
73297;BME280;61524;50.938;11.396;2022-10-16T07:55:58;99023.63;;;15.20;97.93
73297;BME280;61524;50.938;11.396;2022-10-16T07:58:24;99012.59;;;15.21;98.01
73297;BME280;61524;50.938;11.396;2022-10-16T08:00:49;98984.63;;;15.17;98.46
73297;BME280;61524;50.938;11.396;2022-10-16T08:03:15;99002.59;;;15.27;97.56
73297;BME280;61524;50.938;11.396;2022-10-16T08:05:40;99014.94;;;15.33;97.53
73297;BME280;61524;50.938;11.396;2022-10-16T08:08:06;99022.16;;;15.43;97.39
73297;BME280;61524;50.938;11.396;2022-10-16T08:10:31;99023.97;;;15.53;97.01
73297;BME280;61524;50.938;11.396;2022-10-16T08:12:57;99019.88;;;15.60;96.68
73297;BME280;61524;50.938;11.396;2022-10-16T08:15:22;99022.03;;;15.68;96.75
73297;BME280;61524;50.938;11.396;2022-10-16T08:17:58;99015.03;;;15.67;96.57
73297;BME280;61524;50.938;11.396;2022-10-16T08:20:25;99024.38;;;15.75;96.48
73297;BME280;61524;50.938;11.396;2022-10-16T08:22:51;99035.16;;;15.75;96.05
73297;BME280;61524;50.938;11.396;2022-10-16T08:25:16;99051.25;;;15.85;95.79
73297;BME280;61524;50.938;11.396;2022-10-16T08:27:42;99056.09;;;15.88;95.77
73297;BME280;61524;50.938;11.396;2022-10-16T08:30:08;99065.47;;;15.96;95.71
73297;BME280;61524;50.938;11.396;2022-10-16T08:32:33;99063.09;;;15.89;95.95
73297;BME280;61524;50.938;11.396;2022-10-16T08:34:59;99077.38;;;15.90;95.82
73297;BME280;61524;50.938;11.396;2022-10-16T08:37:24;99076.59;;;15.84;96.05
73297;BME280;61524;50.938;11.396;2022-10-16T08:39:50;99074.97;;;15.88;95.83
73297;BME280;61524;50.938;11.396;2022-10-16T08:47:49;99072.72;;;16.00;96.06
73297;BME280;61524;50.938;11.396;2022-10-16T08:50:24;99074.06;;;15.98;95.87
73297;BME280;61524;50.938;11.396;2022-10-16T08:52:52;99083.78;;;15.99;95.87
73297;BME280;61524;50.938;11.396;2022-10-16T08:58:15;99087.00;;;16.30;95.20
73297;BME280;61524;50.938;11.396;2022-10-16T09:00:42;99103.41;;;16.39;94.54
73297;BME280;61524;50.938;11.396;2022-10-16T09:05:52;99100.56;;;16.54;94.02
73297;BME280;61524;50.938;11.396;2022-10-16T09:08:30;99097.81;;;16.59;93.73
73297;BME280;61524;50.938;11.396;2022-10-16T09:11:09;99098.97;;;16.82;92.62
73297;BME280;61524;50.938;11.396;2022-10-16T09:16:15;99122.00;;;16.98;91.92
73297;BME280;61524;50.938;11.396;2022-10-16T09:18:51;99113.34;;;17.01;92.17
73297;BME280;61524;50.938;11.396;2022-10-16T09:23:48;99116.06;;;17.01;90.78
73297;BME280;61524;50.938;11.396;2022-10-16T09:26:15;99128.91;;;17.10;90.50
73297;BME280;61524;50.938;11.396;2022-10-16T09:28:41;99127.28;;;17.09;91.11
73297;BME280;61524;50.938;11.396;2022-10-16T09:31:18;99123.50;;;17.10;90.93
73297;BME280;61524;50.938;11.396;2022-10-16T09:33:48;99136.16;;;17.14;90.45
73297;BME280;61524;50.938;11.396;2022-10-16T09:36:16;99128.28;;;17.18;90.13
73297;BME280;61524;50.938;11.396;2022-10-16T09:38:41;99118.97;;;17.29;89.92
73297;BME280;61524;50.938;11.396;2022-10-16T09:41:17;99128.91;;;17.34;89.69
73297;BME280;61524;50.938;11.396;2022-10-16T09:43:53;99123.03;;;17.50;88.90
73297;BME280;61524;50.938;11.396;2022-10-16T09:46:33;99121.72;;;17.67;88.36
73297;BME280;61524;50.938;11.396;2022-10-16T09:49:21;99133.25;;;17.77;86.77
73297;BME280;61524;50.938;11.396;2022-10-16T09:51:46;99126.88;;;17.87;87.07
73297;BME280;61524;50.938;11.396;2022-10-16T09:54:16;99125.56;;;18.03;86.43
73297;BME280;61524;50.938;11.396;2022-10-16T09:56:42;99128.63;;;18.16;85.22
73297;BME280;61524;50.938;11.396;2022-10-16T09:59:11;99132.34;;;18.01;85.49
73297;BME280;61524;50.938;11.396;2022-10-16T10:01:40;99134.75;;;18.02;85.15
73297;BME280;61524;50.938;11.396;2022-10-16T10:04:07;99150.25;;;17.97;85.96
73297;BME280;61524;50.938;11.396;2022-10-16T10:06:42;99160.03;;;18.12;85.95
73297;BME280;61524;50.938;11.396;2022-10-16T10:09:19;99157.69;;;18.24;84.16
73297;BME280;61524;50.938;11.396;2022-10-16T10:14:20;99159.53;;;18.80;83.59
73297;BME280;61524;50.938;11.396;2022-10-16T10:16:46;99148.69;;;18.80;82.77
73297;BME280;61524;50.938;11.396;2022-10-16T10:19:17;99172.75;;;18.81;82.99
73297;BME280;61524;50.938;11.396;2022-10-16T10:21:44;99169.78;;;18.64;83.10
73297;BME280;61524;50.938;11.396;2022-10-16T10:24:11;99156.25;;;18.64;83.84
73297;BME280;61524;50.938;11.396;2022-10-16T10:26:38;99162.09;;;18.71;82.56
73297;BME280;61524;50.938;11.396;2022-10-16T10:29:26;99168.44;;;18.80;82.91
73297;BME280;61524;50.938;11.396;2022-10-16T10:40:21;99166.16;;;18.87;82.40
73297;BME280;61524;50.938;11.396;2022-10-16T10:45:44;99164.16;;;18.93;82.88
73297;BME280;61524;50.938;11.396;2022-10-16T10:51:37;99163.66;;;18.91;82.11
73297;BME280;61524;50.938;11.396;2022-10-16T10:57:21;99171.63;;;18.69;81.42
73297;BME280;61524;50.938;11.396;2022-10-16T11:02:47;99172.22;;;18.47;83.03
73297;BME280;61524;50.938;11.396;2022-10-16T11:07:58;99182.44;;;18.50;83.23
73297;BME280;61524;50.938;11.396;2022-10-16T11:13:21;99185.19;;;18.31;83.04
73297;BME280;61524;50.938;11.396;2022-10-16T11:15:52;99188.78;;;18.26;84.54
73297;BME280;61524;50.938;11.396;2022-10-16T11:18:33;99189.56;;;18.27;84.40
73297;BME280;61524;50.938;11.396;2022-10-16T11:21:06;99194.69;;;18.28;85.88
73297;BME280;61524;50.938;11.396;2022-10-16T11:26:28;99201.63;;;18.16;86.49
73297;BME280;61524;50.938;11.396;2022-10-16T11:28:56;99204.84;;;18.18;86.27
73297;BME280;61524;50.938;11.396;2022-10-16T11:31:35;99196.28;;;18.29;85.84
73297;BME280;61524;50.938;11.396;2022-10-16T11:34:12;99197.13;;;18.30;85.06
73297;BME280;61524;50.938;11.396;2022-10-16T11:39:26;99189.56;;;18.46;85.01
73297;BME280;61524;50.938;11.396;2022-10-16T11:41:56;99195.00;;;18.59;84.18
73297;BME280;61524;50.938;11.396;2022-10-16T11:49:33;99207.13;;;19.13;81.79
73297;BME280;61524;50.938;11.396;2022-10-16T11:52:03;99205.91;;;19.20;81.13
73297;BME280;61524;50.938;11.396;2022-10-16T11:57:21;99201.59;;;19.19;81.00
73297;BME280;61524;50.938;11.396;2022-10-16T12:03:12;99189.88;;;19.23;80.41
73297;BME280;61524;50.938;11.396;2022-10-16T12:08:35;99201.91;;;19.58;79.78
73297;BME280;61524;50.938;11.396;2022-10-16T12:11:22;99194.13;;;19.71;79.19
73297;BME280;61524;50.938;11.396;2022-10-16T12:13:48;99191.88;;;19.18;80.21
73297;BME280;61524;50.938;11.396;2022-10-16T12:18:42;99200.78;;;19.04;80.59
73297;BME280;61524;50.938;11.396;2022-10-16T12:21:09;99200.53;;;18.87;80.90
73297;BME280;61524;50.938;11.396;2022-10-16T12:23:46;99194.72;;;18.80;81.73
73297;BME280;61524;50.938;11.396;2022-10-16T12:26:13;99195.75;;;18.84;82.10
73297;BME280;61524;50.938;11.396;2022-10-16T12:28:38;99207.06;;;18.86;82.52
73297;BME280;61524;50.938;11.396;2022-10-16T12:31:07;99202.84;;;18.80;81.96
73297;BME280;61524;50.938;11.396;2022-10-16T12:33:50;99220.69;;;18.81;82.84
73297;BME280;61524;50.938;11.396;2022-10-16T12:36:32;99235.97;;;18.91;83.03
73297;BME280;61524;50.938;11.396;2022-10-16T12:38:59;99231.28;;;18.77;84.59
73297;BME280;61524;50.938;11.396;2022-10-16T12:41:45;99229.63;;;18.62;86.58
73297;BME280;61524;50.938;11.396;2022-10-16T12:44:24;99227.06;;;18.52;87.62
73297;BME280;61524;50.938;11.396;2022-10-16T12:46:51;99234.31;;;18.19;89.03
73297;BME280;61524;50.938;11.396;2022-10-16T12:49:37;99237.66;;;18.11;89.95
73297;BME280;61524;50.938;11.396;2022-10-16T12:52:04;99221.09;;;17.75;91.67
73297;BME280;61524;50.938;11.396;2022-10-16T12:54:35;99210.53;;;17.54;92.75
73297;BME280;61524;50.938;11.396;2022-10-16T12:59:55;99220.25;;;17.26;95.86
73297;BME280;61524;50.938;11.396;2022-10-16T13:29:35;99242.22;;;17.73;94.16
73297;BME280;61524;50.938;11.396;2022-10-16T13:32:01;99237.88;;;17.72;94.32
73297;BME280;61524;50.938;11.396;2022-10-16T13:34:32;99246.50;;;17.74;94.69
73297;BME280;61524;50.938;11.396;2022-10-16T13:36:58;99241.94;;;17.69;94.45
73297;BME280;61524;50.938;11.396;2022-10-16T13:39:25;99247.06;;;17.71;94.70
73297;BME280;61524;50.938;11.396;2022-10-16T13:44:36;99244.19;;;17.86;93.42
73297;BME280;61524;50.938;11.396;2022-10-16T13:47:04;99244.88;;;17.97;92.28
73297;BME280;61524;50.938;11.396;2022-10-16T13:49:29;99239.88;;;18.09;91.80
73297;BME280;61524;50.938;11.396;2022-10-16T13:51:56;99238.84;;;18.05;90.53
73297;BME280;61524;50.938;11.396;2022-10-16T13:54:24;99250.69;;;18.09;90.85
73297;BME280;61524;50.938;11.396;2022-10-16T13:56:49;99255.78;;;18.10;90.12
73297;BME280;61524;50.938;11.396;2022-10-16T13:59:26;99255.06;;;18.05;90.54
73297;BME280;61524;50.938;11.396;2022-10-16T14:01:57;99243.25;;;18.20;90.49
73297;BME280;61524;50.938;11.396;2022-10-16T14:04:23;99249.16;;;18.22;90.31
73297;BME280;61524;50.938;11.396;2022-10-16T14:06:50;99255.72;;;18.16;90.66
73297;BME280;61524;50.938;11.396;2022-10-16T14:09:30;99254.94;;;18.15;90.41
73297;BME280;61524;50.938;11.396;2022-10-16T14:12:00;99259.59;;;18.09;90.51
73297;BME280;61524;50.938;11.396;2022-10-16T14:14:50;99267.97;;;18.08;90.77
73297;BME280;61524;50.938;11.396;2022-10-16T14:17:19;99267.13;;;18.13;89.60
73297;BME280;61524;50.938;11.396;2022-10-16T14:19:50;99250.09;;;18.12;89.45
73297;BME280;61524;50.938;11.396;2022-10-16T14:22:42;99256.97;;;18.04;89.85
73297;BME280;61524;50.938;11.396;2022-10-16T14:30:35;99274.28;;;17.79;90.55
73297;BME280;61524;50.938;11.396;2022-10-16T14:33:04;99265.16;;;17.70;90.42
73297;BME280;61524;50.938;11.396;2022-10-16T14:35:35;99267.03;;;17.75;90.32
73297;BME280;61524;50.938;11.396;2022-10-16T14:38:02;99266.84;;;17.66;90.83
73297;BME280;61524;50.938;11.396;2022-10-16T14:40:33;99275.16;;;17.70;90.92
73297;BME280;61524;50.938;11.396;2022-10-16T14:43:04;99278.97;;;17.69;90.79
73297;BME280;61524;50.938;11.396;2022-10-16T14:45:33;99278.41;;;17.72;90.73
73297;BME280;61524;50.938;11.396;2022-10-16T14:48:06;99280.53;;;17.75;90.43
73297;BME280;61524;50.938;11.396;2022-10-16T14:50:40;99285.16;;;17.74;90.48
73297;BME280;61524;50.938;11.396;2022-10-16T14:53:11;99296.03;;;17.64;90.65
73297;BME280;61524;50.938;11.396;2022-10-16T14:55:37;99294.78;;;17.56;91.15
73297;BME280;61524;50.938;11.396;2022-10-16T14:58:03;99296.97;;;17.54;91.31